Global Triumph — V7DU5 — position and weather

sailwx.info

Track history (hours):
 
Tides and Currents Weather Stations Pressure Air Temp Water Temp Dewpoint Dewpoint Depression Visibility Wind Speed Wind Dir Waves Ship Positions

Global Triumph

Last reported at 2017-Aug-08 06:35 UTC. Time now 2017-Aug-16 19:32 UTC.
Position N 41°26' W 137°18'.
Warning: this ship's position is 8 days out of date.

Length 225 m; draft 6.9 m.

Type: Cargo ship. MMSI: 538001709.

Date/timePositionNaut miles runAvg speedWind from/ knotsBaromVisibWave heightAir tempDewpointWater temp
2017-Aug-08 06:35N 41°26' W 137°18'715.4
2017-Aug-08 06:10N 41°24' W 137°10'12415.3
2017-Aug-07 22:03N 40°33' W 134°40'11615.5
2017-Aug-07 14:34N 39°46' W 132°20'115.7
2017-Aug-07 14:30N 39°46' W 132°19'815.5
2017-Aug-07 14:00N 39°42' W 132°10'715.5
2017-Aug-07 13:31N 39°39' W 132°01'815.3
2017-Aug-07 12:59N 39°36' W 131°51'715.5
2017-Aug-07 12:30N 39°33' W 131°43'815.3
2017-Aug-07 11:59N 39°30' W 131°33'915.3
2017-Aug-07 11:23N 39°26' W 131°22'715.4
2017-Aug-07 10:57N 39°23' W 131°14'715.5
2017-Aug-07 10:29N 39°20' W 131°06'815.4
2017-Aug-07 09:56N 39°17' W 130°56'615.1
2017-Aug-07 09:30N 39°14' W 130°48'815.1
2017-Aug-07 09:00N 39°11' W 130°39'815.1
2017-Aug-07 08:30N 39°08' W 130°30'1215.2
2017-Aug-07 07:44N 39°03' W 130°17'515.3
2017-Aug-07 07:25N 39°01' W 130°11'715.2
2017-Aug-07 06:56N 38°58' W 130°03'715.3
2017-Aug-07 06:28N 38°55' W 129°54'715.3
2017-Aug-07 06:00N 38°52' W 129°46'815.4
2017-Aug-07 05:30N 38°49' W 129°37'815.4
2017-Aug-07 05:01N 38°46' W 129°28'815.2
2017-Aug-07 04:31N 38°43' W 129°19'914.8
2017-Aug-07 03:53N 38°39' W 129°08'13215.5
2017-Aug-06 19:23N 38°01' W 126°27'7215.9
2017-Aug-06 14:50N 37°50' W 124°57'515.3
2017-Aug-06 14:31N 37°49' W 124°51'815.6
2017-Aug-06 13:59N 37°48' W 124°40'715.8
2017-Aug-06 13:31N 37°46' W 124°31'815.5
2017-Aug-06 13:00N 37°45' W 124°22'815.2
2017-Aug-06 12:30N 37°44' W 124°12'815.1
2017-Aug-06 12:00N 37°42' W 124°03'1415.2
2017-Aug-06 11:04N 37°40' W 123°45'116.2
2017-Aug-06 11:00N 37°40' W 123°44'915.3
2017-Aug-06 10:24N 37°38' W 123°32'615.3
2017-Aug-06 10:01N 37°37' W 123°25'815.6
2017-Aug-06 09:31N 37°35' W 123°15'815.5
2017-Aug-06 09:00N 37°34' W 123°05'5 9.2
2017-Aug-06 08:30N 37°36' W 123°00'5 9.5
2017-Aug-06 08:00N 37°39' W 122°55'5 9.6
2017-Aug-06 07:28N 37°42' W 122°50'612.4
2017-Aug-06 07:00N 37°44' W 122°43'612.1
2017-Aug-06 06:30N 37°47' W 122°36'714.8
2017-Aug-06 06:00N 37°50' W 122°28'510.6
2017-Aug-06 05:31N 37°47' W 122°22'2 3.7
2017-Aug-06 05:00N 37°45' W 122°23'0 0.0
2017-Aug-06 04:30N 37°45' W 122°23'0 0.0
2017-Aug-06 04:00N 37°45' W 122°23'0 0.0
2017-Aug-06 03:30N 37°45' W 122°23'0 0.0
2017-Aug-06 03:00N 37°45' W 122°23'0 0.0
2017-Aug-06 02:30N 37°45' W 122°23'0 0.0
2017-Aug-06 02:00N 37°45' W 122°23'0 0.0
2017-Aug-06 01:30N 37°45' W 122°23'0 0.0
2017-Aug-06 01:00N 37°45' W 122°23'0 0.0
2017-Aug-06 00:30N 37°45' W 122°23'0 0.0
2017-Aug-06 00:00N 37°45' W 122°23'0 0.0
2017-Aug-05 23:30N 37°45' W 122°23'0 0.0
2017-Aug-05 23:00N 37°45' W 122°23'0 0.0
2017-Aug-05 22:30N 37°45' W 122°23'0 0.0
2017-Aug-05 21:57N 37°45' W 122°23'0 0.0
2017-Aug-05 21:30N 37°45' W 122°23'0 0.0
2017-Aug-05 21:00N 37°45' W 122°23'0 0.0
2017-Aug-05 20:30N 37°45' W 122°23'0 0.0
2017-Aug-05 20:00N 37°45' W 122°23'0 0.0
2017-Aug-05 19:30N 37°45' W 122°23'0 0.0
2017-Aug-05 19:00N 37°45' W 122°23'0 0.0
2017-Aug-05 18:30N 37°45' W 122°23'0 0.0
2017-Aug-05 18:00N 37°45' W 122°23'0 0.0
2017-Aug-05 17:30N 37°45' W 122°23'0 0.0
2017-Aug-05 17:00N 37°45' W 122°23'0 0.0
2017-Aug-05 16:30N 37°45' W 122°23'0 0.0
2017-Aug-05 16:00N 37°45' W 122°23'0 0.0
2017-Aug-05 15:30N 37°45' W 122°23'0 0.0
2017-Aug-05 15:00N 37°45' W 122°23'0 0.0
2017-Aug-05 14:30N 37°45' W 122°23'0 0.0
2017-Aug-05 14:00N 37°45' W 122°23'0 0.0
2017-Aug-05 13:30N 37°45' W 122°23'0 0.0
2017-Aug-05 13:00N 37°45' W 122°23'0 0.0
2017-Aug-05 12:30N 37°45' W 122°23'0 0.0
2017-Aug-05 12:00N 37°45' W 122°23'0 0.0
2017-Aug-05 11:30N 37°45' W 122°23'0 0.1
2017-Aug-05 11:01N 37°45' W 122°23'2 4.0
2017-Aug-05 10:31N 37°47' W 122°23'4 8.7
2017-Aug-05 10:01N 37°49' W 122°27'510.5
2017-Aug-05 09:30N 37°47' W 122°34'611.1
2017-Aug-05 09:00N 37°45' W 122°40'4 8.0
2017-Aug-05 08:30N 37°42' W 122°44'5 9.5
2017-Aug-05 08:00N 37°40' W 122°49'5 9.6
2017-Aug-05 07:30N 37°37' W 122°54'5 9.5
2017-Aug-05 07:00N 37°34' W 122°59'5 9.6
2017-Aug-05 06:30N 37°31' W 123°04'611.7
2017-Aug-05 06:00N 37°27' W 123°09'714.0
2017-Aug-05 05:30N 37°22' W 123°15'815.1
2017-Aug-05 05:00N 37°15' W 123°17'5 9.7
2017-Aug-05 04:31N 37°10' W 123°18'714.6
2017-Aug-05 04:00N 37°03' W 123°19'815.7
2017-Aug-05 03:31N 36°55' W 123°21'917.5
2017-Aug-05 03:01N 36°46' W 123°23'917.7
2017-Aug-05 02:30N 36°38' W 123°25'917.5
2017-Aug-05 02:00N 36°29' W 123°27'917.6
2017-Aug-05 01:31N 36°20' W 123°28'917.8
2017-Aug-05 01:01N 36°12' W 123°30'917.6
2017-Aug-05 00:30N 36°03' W 123°32'917.6
2017-Aug-05 00:01N 35°54' W 123°33'917.2
2017-Aug-04 23:31N 35°46' W 123°35'917.1
2017-Aug-04 23:00N 35°37' W 123°36'816.7
2017-Aug-04 22:31N 35°29' W 123°38'816.5
2017-Aug-04 22:00N 35°21' W 123°40'816.7
2017-Aug-04 21:30N 35°13' W 123°42'816.4
2017-Aug-04 21:00N 35°04' W 123°41'817.0
2017-Aug-04 20:31N 34°57' W 123°38'917.2
2017-Aug-04 20:01N 34°48' W 123°34'917.2
2017-Aug-04 19:30N 34°40' W 123°31'917.1
2017-Aug-04 18:58N 34°32' W 123°27'817.1
2017-Aug-04 18:30N 34°24' W 123°24'817.0
2017-Aug-04 18:00N 34°16' W 123°20'1317.0
2017-Aug-04 17:14N 34°04' W 123°15'417.1
2017-Aug-04 17:00N 34°00' W 123°13'816.9
2017-Aug-04 16:31N 33°52' W 123°10'816.4
2017-Aug-04 16:00N 33°45' W 123°06'816.5
2017-Aug-04 15:30N 33°37' W 123°03'916.7
2017-Aug-04 15:00N 33°29' W 122°60'1816.5
2017-Aug-04 13:53N 33°12' W 122°50'717.1
2017-Aug-04 13:30N 33°07' W 122°45'917.2
2017-Aug-04 13:01N 33°00' W 122°39'917.3
2017-Aug-04 12:30N 32°53' W 122°33'917.4
2017-Aug-04 12:00N 32°46' W 122°27'1317.3
2017-Aug-04 11:14N 32°35' W 122°18'417.2
2017-Aug-04 11:00N 32°31' W 122°16'2017.4
2017-Aug-04 09:53N 32°15' W 122°03'717.7
2017-Aug-04 09:31N 32°10' W 121°58'1517.6
2017-Aug-04 08:40N 31°58' W 121°48'317.5
2017-Aug-04 08:30N 31°56' W 121°46'917.6
2017-Aug-04 08:00N 31°49' W 121°40'917.7
2017-Aug-04 07:30N 31°41' W 121°34'917.9
2017-Aug-04 07:01N 31°34' W 121°28'917.3
2017-Aug-04 06:30N 31°27' W 121°22'917.3
2017-Aug-04 06:01N 31°20' W 121°16'917.6
2017-Aug-04 05:30N 31°13' W 121°11'917.6
2017-Aug-04 04:59N 31°05' W 121°05'917.5
2017-Aug-04 04:30N 30°58' W 120°59'917.4
2017-Aug-04 04:00N 30°51' W 120°53'917.8
2017-Aug-04 03:31N 30°44' W 120°47'917.8
2017-Aug-04 03:01N 30°37' W 120°41'917.9
2017-Aug-04 02:31N 30°29' W 120°35'917.8
2017-Aug-04 02:01N 30°22' W 120°29'918.0
2017-Aug-04 01:30N 30°15' W 120°23'917.8
2017-Aug-04 01:01N 30°07' W 120°17'917.7
2017-Aug-04 00:31N 29°60' W 120°12'917.8
2017-Aug-04 00:01N 29°53' W 120°06'917.9
2017-Aug-03 23:30N 29°45' W 120°00'917.6
2017-Aug-03 23:01N 29°38' W 119°54'917.5
2017-Aug-03 22:31N 29°31' W 119°48'917.3
2017-Aug-03 22:00N 29°24' W 119°43'1017.2
2017-Aug-03 21:24N 29°15' W 119°36'817.3
2017-Aug-03 20:57N 29°09' W 119°31'2316.9
2017-Aug-03 19:35N 28°50' W 119°16'216.6
2017-Aug-03 19:30N 28°49' W 119°15'816.8
2017-Aug-03 19:01N 28°42' W 119°09'1017.1
2017-Aug-03 18:26N 28°34' W 119°03'1117.3
2017-Aug-03 17:46N 28°24' W 118°56'517.4
2017-Aug-03 17:30N 28°21' W 118°52'2517.6
2017-Aug-03 16:04N 28°05' W 118°30'118.1
2017-Aug-03 16:00N 28°04' W 118°29'917.6
2017-Aug-03 15:30N 27°58' W 118°21'1217.3
2017-Aug-03 14:49N 27°51' W 118°11'2717.4
2017-Aug-03 13:15N 27°35' W 117°46'517.5
2017-Aug-03 12:58N 27°32' W 117°42'28917.5
2017-Aug-02 20:26N 24°34' W 113°28'  
Track history (hours):
 
Tides and Currents Weather Stations Pressure Air Temp Water Temp Dewpoint Dewpoint Depression Visibility Wind Speed Wind Dir Waves Ship Positions

Global Triumph

Last reported at 2017-Aug-08 06:35 UTC. Time now 2017-Aug-16 19:32 UTC.
Position N 41°26' W 137°18'.
Warning: this ship's position is 8 days out of date.

Length 225 m; draft 6.9 m.

Type: Cargo ship. MMSI: 538001709.

Date/timePositionNaut miles runAvg speedWind from/ knotsBaromVisibWave heightAir tempDewpointWater temp
2017-Aug-08 06:35N 41°26' W 137°18'715.4
2017-Aug-08 06:10N 41°24' W 137°10'12415.3
2017-Aug-07 22:03N 40°33' W 134°40'11615.5
2017-Aug-07 14:34N 39°46' W 132°20'115.7
2017-Aug-07 14:30N 39°46' W 132°19'815.5
2017-Aug-07 14:00N 39°42' W 132°10'715.5
2017-Aug-07 13:31N 39°39' W 132°01'815.3
2017-Aug-07 12:59N 39°36' W 131°51'715.5
2017-Aug-07 12:30N 39°33' W 131°43'815.3
2017-Aug-07 11:59N 39°30' W 131°33'915.3
2017-Aug-07 11:23N 39°26' W 131°22'715.4
2017-Aug-07 10:57N 39°23' W 131°14'715.5
2017-Aug-07 10:29N 39°20' W 131°06'815.4
2017-Aug-07 09:56N 39°17' W 130°56'615.1
2017-Aug-07 09:30N 39°14' W 130°48'815.1
2017-Aug-07 09:00N 39°11' W 130°39'815.1
2017-Aug-07 08:30N 39°08' W 130°30'1215.2
2017-Aug-07 07:44N 39°03' W 130°17'515.3
2017-Aug-07 07:25N 39°01' W 130°11'715.2
2017-Aug-07 06:56N 38°58' W 130°03'715.3
2017-Aug-07 06:28N 38°55' W 129°54'715.3
2017-Aug-07 06:00N 38°52' W 129°46'815.4
2017-Aug-07 05:30N 38°49' W 129°37'815.4
2017-Aug-07 05:01N 38°46' W 129°28'815.2
2017-Aug-07 04:31N 38°43' W 129°19'914.8
2017-Aug-07 03:53N 38°39' W 129°08'13215.5
2017-Aug-06 19:23N 38°01' W 126°27'7215.9
2017-Aug-06 14:50N 37°50' W 124°57'515.3
2017-Aug-06 14:31N 37°49' W 124°51'815.6
2017-Aug-06 13:59N 37°48' W 124°40'715.8
2017-Aug-06 13:31N 37°46' W 124°31'815.5
2017-Aug-06 13:00N 37°45' W 124°22'815.2
2017-Aug-06 12:30N 37°44' W 124°12'815.1
2017-Aug-06 12:00N 37°42' W 124°03'1415.2
2017-Aug-06 11:04N 37°40' W 123°45'116.2
2017-Aug-06 11:00N 37°40' W 123°44'915.3
2017-Aug-06 10:24N 37°38' W 123°32'615.3
2017-Aug-06 10:01N 37°37' W 123°25'815.6
2017-Aug-06 09:31N 37°35' W 123°15'815.5
2017-Aug-06 09:00N 37°34' W 123°05'5 9.2
2017-Aug-06 08:30N 37°36' W 123°00'5 9.5
2017-Aug-06 08:00N 37°39' W 122°55'5 9.6
2017-Aug-06 07:28N 37°42' W 122°50'612.4
2017-Aug-06 07:00N 37°44' W 122°43'612.1
2017-Aug-06 06:30N 37°47' W 122°36'714.8
2017-Aug-06 06:00N 37°50' W 122°28'510.6
2017-Aug-06 05:31N 37°47' W 122°22'2 3.7
2017-Aug-06 05:00N 37°45' W 122°23'0 0.0
2017-Aug-06 04:30N 37°45' W 122°23'0 0.0
2017-Aug-06 04:00N 37°45' W 122°23'0 0.0
2017-Aug-06 03:30N 37°45' W 122°23'0 0.0
2017-Aug-06 03:00N 37°45' W 122°23'0 0.0
2017-Aug-06 02:30N 37°45' W 122°23'0 0.0
2017-Aug-06 02:00N 37°45' W 122°23'0 0.0
2017-Aug-06 01:30N 37°45' W 122°23'0 0.0
2017-Aug-06 01:00N 37°45' W 122°23'0 0.0
2017-Aug-06 00:30N 37°45' W 122°23'0 0.0
2017-Aug-06 00:00N 37°45' W 122°23'0 0.0
2017-Aug-05 23:30N 37°45' W 122°23'0 0.0
2017-Aug-05 23:00N 37°45' W 122°23'0 0.0
2017-Aug-05 22:30N 37°45' W 122°23'0 0.0
2017-Aug-05 21:57N 37°45' W 122°23'0 0.0
2017-Aug-05 21:30N 37°45' W 122°23'0 0.0
2017-Aug-05 21:00N 37°45' W 122°23'0 0.0
2017-Aug-05 20:30N 37°45' W 122°23'0 0.0
2017-Aug-05 20:00N 37°45' W 122°23'0 0.0
2017-Aug-05 19:30N 37°45' W 122°23'0 0.0
2017-Aug-05 19:00N 37°45' W 122°23'0 0.0
2017-Aug-05 18:30N 37°45' W 122°23'0 0.0
2017-Aug-05 18:00N 37°45' W 122°23'0 0.0
2017-Aug-05 17:30N 37°45' W 122°23'0 0.0
2017-Aug-05 17:00N 37°45' W 122°23'0 0.0
2017-Aug-05 16:30N 37°45' W 122°23'0 0.0
2017-Aug-05 16:00N 37°45' W 122°23'0 0.0
2017-Aug-05 15:30N 37°45' W 122°23'0 0.0
2017-Aug-05 15:00N 37°45' W 122°23'0 0.0
2017-Aug-05 14:30N 37°45' W 122°23'0 0.0
2017-Aug-05 14:00N 37°45' W 122°23'0 0.0
2017-Aug-05 13:30N 37°45' W 122°23'0 0.0
2017-Aug-05 13:00N 37°45' W 122°23'0 0.0
2017-Aug-05 12:30N 37°45' W 122°23'0 0.0
2017-Aug-05 12:00N 37°45' W 122°23'0 0.0
2017-Aug-05 11:30N 37°45' W 122°23'0 0.1
2017-Aug-05 11:01N 37°45' W 122°23'2 4.0
2017-Aug-05 10:31N 37°47' W 122°23'4 8.7
2017-Aug-05 10:01N 37°49' W 122°27'510.5
2017-Aug-05 09:30N 37°47' W 122°34'611.1
2017-Aug-05 09:00N 37°45' W 122°40'4 8.0
2017-Aug-05 08:30N 37°42' W 122°44'5 9.5
2017-Aug-05 08:00N 37°40' W 122°49'5 9.6
2017-Aug-05 07:30N 37°37' W 122°54'5 9.5
2017-Aug-05 07:00N 37°34' W 122°59'5 9.6
2017-Aug-05 06:30N 37°31' W 123°04'611.7
2017-Aug-05 06:00N 37°27' W 123°09'714.0
2017-Aug-05 05:30N 37°22' W 123°15'815.1
2017-Aug-05 05:00N 37°15' W 123°17'5 9.7
2017-Aug-05 04:31N 37°10' W 123°18'714.6
2017-Aug-05 04:00N 37°03' W 123°19'815.7
2017-Aug-05 03:31N 36°55' W 123°21'917.5
2017-Aug-05 03:01N 36°46' W 123°23'917.7
2017-Aug-05 02:30N 36°38' W 123°25'917.5
2017-Aug-05 02:00N 36°29' W 123°27'917.6
2017-Aug-05 01:31N 36°20' W 123°28'917.8
2017-Aug-05 01:01N 36°12' W 123°30'917.6
2017-Aug-05 00:30N 36°03' W 123°32'917.6
2017-Aug-05 00:01N 35°54' W 123°33'917.2
2017-Aug-04 23:31N 35°46' W 123°35'917.1
2017-Aug-04 23:00N 35°37' W 123°36'816.7
2017-Aug-04 22:31N 35°29' W 123°38'816.5
2017-Aug-04 22:00N 35°21' W 123°40'816.7
2017-Aug-04 21:30N 35°13' W 123°42'816.4
2017-Aug-04 21:00N 35°04' W 123°41'817.0
2017-Aug-04 20:31N 34°57' W 123°38'917.2
2017-Aug-04 20:01N 34°48' W 123°34'917.2
2017-Aug-04 19:30N 34°40' W 123°31'917.1
2017-Aug-04 18:58N 34°32' W 123°27'817.1
2017-Aug-04 18:30N 34°24' W 123°24'817.0
2017-Aug-04 18:00N 34°16' W 123°20'1317.0
2017-Aug-04 17:14N 34°04' W 123°15'417.1
2017-Aug-04 17:00N 34°00' W 123°13'816.9
2017-Aug-04 16:31N 33°52' W 123°10'816.4
2017-Aug-04 16:00N 33°45' W 123°06'816.5
2017-Aug-04 15:30N 33°37' W 123°03'916.7
2017-Aug-04 15:00N 33°29' W 122°60'1816.5
2017-Aug-04 13:53N 33°12' W 122°50'717.1
2017-Aug-04 13:30N 33°07' W 122°45'917.2
2017-Aug-04 13:01N 33°00' W 122°39'917.3
2017-Aug-04 12:30N 32°53' W 122°33'917.4
2017-Aug-04 12:00N 32°46' W 122°27'1317.3
2017-Aug-04 11:14N 32°35' W 122°18'417.2
2017-Aug-04 11:00N 32°31' W 122°16'2017.4
2017-Aug-04 09:53N 32°15' W 122°03'717.7
2017-Aug-04 09:31N 32°10' W 121°58'1517.6
2017-Aug-04 08:40N 31°58' W 121°48'317.5
2017-Aug-04 08:30N 31°56' W 121°46'917.6
2017-Aug-04 08:00N 31°49' W 121°40'917.7
2017-Aug-04 07:30N 31°41' W 121°34'917.9
2017-Aug-04 07:01N 31°34' W 121°28'917.3
2017-Aug-04 06:30N 31°27' W 121°22'917.3
2017-Aug-04 06:01N 31°20' W 121°16'917.6
2017-Aug-04 05:30N 31°13' W 121°11'917.6
2017-Aug-04 04:59N 31°05' W 121°05'917.5
2017-Aug-04 04:30N 30°58' W 120°59'917.4
2017-Aug-04 04:00N 30°51' W 120°53'917.8
2017-Aug-04 03:31N 30°44' W 120°47'917.8
2017-Aug-04 03:01N 30°37' W 120°41'917.9
2017-Aug-04 02:31N 30°29' W 120°35'917.8
2017-Aug-04 02:01N 30°22' W 120°29'918.0
2017-Aug-04 01:30N 30°15' W 120°23'917.8
2017-Aug-04 01:01N 30°07' W 120°17'917.7
2017-Aug-04 00:31N 29°60' W 120°12'917.8
2017-Aug-04 00:01N 29°53' W 120°06'917.9
2017-Aug-03 23:30N 29°45' W 120°00'917.6
2017-Aug-03 23:01N 29°38' W 119°54'917.5
2017-Aug-03 22:31N 29°31' W 119°48'917.3
2017-Aug-03 22:00N 29°24' W 119°43'1017.2
2017-Aug-03 21:24N 29°15' W 119°36'817.3
2017-Aug-03 20:57N 29°09' W 119°31'2316.9
2017-Aug-03 19:35N 28°50' W 119°16'216.6
2017-Aug-03 19:30N 28°49' W 119°15'816.8
2017-Aug-03 19:01N 28°42' W 119°09'1017.1
2017-Aug-03 18:26N 28°34' W 119°03'1117.3
2017-Aug-03 17:46N 28°24' W 118°56'517.4
2017-Aug-03 17:30N 28°21' W 118°52'2517.6
2017-Aug-03 16:04N 28°05' W 118°30'118.1
2017-Aug-03 16:00N 28°04' W 118°29'917.6
2017-Aug-03 15:30N 27°58' W 118°21'1217.3
2017-Aug-03 14:49N 27°51' W 118°11'2717.4
2017-Aug-03 13:15N 27°35' W 117°46'517.5
2017-Aug-03 12:58N 27°32' W 117°42'28917.5
2017-Aug-02 20:26N 24°34' W 113°28'  

Dump ship's entire track history